createdAt,value
2022-08-25T00:01:37.689Z,17.64
2022-08-25T00:04:07.516Z,17.68
2022-08-25T00:06:33.869Z,17.60
2022-08-25T00:09:00.189Z,17.64
2022-08-25T00:11:28.417Z,17.62
2022-08-25T00:13:58.359Z,17.58
2022-08-25T00:16:25.420Z,17.56
2022-08-25T00:18:54.181Z,17.53
2022-08-25T00:21:21.390Z,17.55
2022-08-25T00:23:47.846Z,17.60
2022-08-25T00:26:15.008Z,17.59
2022-08-25T00:28:41.655Z,17.64
2022-08-25T00:31:11.389Z,17.54
2022-08-25T00:33:37.836Z,17.56
2022-08-25T00:36:04.779Z,17.60
2022-08-25T00:38:31.778Z,17.43
2022-08-25T00:41:07.240Z,17.57
2022-08-25T00:43:45.638Z,17.51
2022-08-25T00:46:13.823Z,17.38
2022-08-25T00:48:42.226Z,17.36
2022-08-25T00:51:09.645Z,17.29
2022-08-25T00:53:35.966Z,17.22
2022-08-25T00:56:02.485Z,17.23
2022-08-25T00:58:31.024Z,17.18
2022-08-25T01:00:57.719Z,17.18
2022-08-25T01:03:30.498Z,17.29
2022-08-25T01:06:02.010Z,17.27
2022-08-25T01:08:29.306Z,17.19
2022-08-25T01:10:59.663Z,17.08
2022-08-25T01:13:28.961Z,17.15
2022-08-25T01:15:56.579Z,17.17
2022-08-25T01:18:23.654Z,17.15
2022-08-25T01:20:54.100Z,17.12
2022-08-25T01:23:20.872Z,17.12
2022-08-25T01:25:51.547Z,17.16
2022-08-25T01:28:18.885Z,17.09
2022-08-25T01:30:45.477Z,17.10
2022-08-25T01:33:12.257Z,17.05
2022-08-25T01:35:39.510Z,17.00
2022-08-25T01:38:06.615Z,17.04
2022-08-25T01:40:33.086Z,17.02
2022-08-25T01:43:14.570Z,17.13
2022-08-25T01:45:43.393Z,17.05
2022-08-25T01:48:10.454Z,17.04
2022-08-25T01:50:37.580Z,17.07
2022-08-25T01:53:08.512Z,17.09
2022-08-25T01:55:51.609Z,17.03
2022-08-25T01:58:19.317Z,17.05
2022-08-25T02:00:46.829Z,17.02
2022-08-25T02:03:18.755Z,17.02
2022-08-25T02:05:45.866Z,17.06
2022-08-25T02:08:14.469Z,17.07
2022-08-25T02:10:41.499Z,17.05
2022-08-25T02:13:08.959Z,17.03
2022-08-25T02:15:39.131Z,17.05
2022-08-25T02:18:05.604Z,17.08
2022-08-25T02:20:31.974Z,17.13
2022-08-25T02:22:58.313Z,17.16
2022-08-25T02:25:24.684Z,17.16
2022-08-25T02:27:51.042Z,17.16
2022-08-25T02:30:17.762Z,17.06
2022-08-25T02:32:44.461Z,17.04
2022-08-25T02:35:11.585Z,17.17
2022-08-25T02:37:37.924Z,17.05
2022-08-25T02:40:04.937Z,17.02
2022-08-25T02:42:31.497Z,17.11
2022-08-25T02:44:57.832Z,17.10
2022-08-25T02:47:27.235Z,17.04
2022-08-25T02:49:53.879Z,17.04
2022-08-25T02:52:20.306Z,17.03
2022-08-25T02:54:46.630Z,17.09
2022-08-25T02:57:14.105Z,17.13
2022-08-25T02:59:41.143Z,17.17
2022-08-25T03:02:07.526Z,17.21
2022-08-25T03:04:33.895Z,17.25
2022-08-25T03:07:00.269Z,17.28
2022-08-25T03:09:27.210Z,17.28
2022-08-25T03:11:53.625Z,17.27
2022-08-25T03:14:19.949Z,17.31
2022-08-25T03:16:46.664Z,17.36
2022-08-25T03:19:13.759Z,17.40
2022-08-25T03:21:40.083Z,17.43
2022-08-25T03:24:06.495Z,17.40
2022-08-25T03:26:51.678Z,17.43
2022-08-25T03:29:18.696Z,17.48
2022-08-25T03:31:45.323Z,17.56
2022-08-25T03:34:12.642Z,17.54
2022-08-25T03:36:39.273Z,17.51
2022-08-25T03:39:06.220Z,17.50
2022-08-25T03:41:32.753Z,17.51
2022-08-25T03:43:59.884Z,17.54
2022-08-25T03:46:27.999Z,17.58
2022-08-25T03:48:54.762Z,17.54
2022-08-25T03:51:21.109Z,17.50
2022-08-25T03:53:47.441Z,17.47
2022-08-25T03:56:13.743Z,17.43
2022-08-25T03:58:40.062Z,17.41
2022-08-25T04:01:06.657Z,17.37
2022-08-25T04:03:33.008Z,17.35
2022-08-25T04:06:03.593Z,17.35
2022-08-25T04:08:29.901Z,17.40
2022-08-25T04:10:56.634Z,17.41
2022-08-25T04:13:23.268Z,17.36
2022-08-25T04:15:49.948Z,17.34
2022-08-25T04:18:16.340Z,17.33
2022-08-25T04:20:46.577Z,17.29
2022-08-25T04:23:13.250Z,17.28
2022-08-25T04:25:42.456Z,17.26
2022-08-25T04:28:09.708Z,17.33
2022-08-25T04:30:36.238Z,17.35
2022-08-25T04:33:04.990Z,17.28
2022-08-25T04:35:31.327Z,17.28
2022-08-25T04:37:58.590Z,17.29
2022-08-25T04:40:29.120Z,17.27
2022-08-25T04:42:55.783Z,17.29
2022-08-25T04:45:22.159Z,17.33
2022-08-25T04:47:52.934Z,17.36
2022-08-25T04:50:21.083Z,17.41
2022-08-25T04:52:47.421Z,17.43
2022-08-25T04:55:13.741Z,17.46
2022-08-25T04:57:40.082Z,17.50
2022-08-25T05:00:07.321Z,17.56
2022-08-25T05:02:33.671Z,17.67
2022-08-25T05:05:01.393Z,17.75
2022-08-25T05:07:28.605Z,17.78
2022-08-25T05:09:54.921Z,17.85
2022-08-25T05:12:21.323Z,17.97
2022-08-25T05:14:48.389Z,17.99
2022-08-25T05:17:14.777Z,18.05
2022-08-25T05:19:41.146Z,18.14
2022-08-25T05:22:07.510Z,18.19
2022-08-25T05:24:33.836Z,18.31
2022-08-25T05:27:00.181Z,18.41
2022-08-25T05:29:26.974Z,18.52
2022-08-25T05:31:53.820Z,18.64
2022-08-25T05:34:20.365Z,18.73
2022-08-25T05:36:47.496Z,18.81
2022-08-25T05:39:14.470Z,18.93
2022-08-25T05:41:40.826Z,19.04
2022-08-25T05:44:07.645Z,19.16
2022-08-25T05:46:34.013Z,19.27
2022-08-25T05:49:00.396Z,19.39
2022-08-25T05:51:26.784Z,19.54
2022-08-25T05:53:53.509Z,19.67
2022-08-25T05:56:19.992Z,19.81
2022-08-25T05:58:46.681Z,19.98
2022-08-25T06:01:39.804Z,20.14
2022-08-25T06:04:09.802Z,20.31
2022-08-25T06:06:36.304Z,20.30
2022-08-25T06:09:04.812Z,20.29
2022-08-25T06:11:31.150Z,20.39
2022-08-25T06:13:57.600Z,20.43
2022-08-25T06:16:23.975Z,20.56
2022-08-25T06:18:50.647Z,20.77
2022-08-25T06:21:18.477Z,20.93
2022-08-25T06:23:44.769Z,21.09
2022-08-25T06:26:13.243Z,21.42
2022-08-25T06:28:47.738Z,21.38
2022-08-25T06:31:14.170Z,21.64
2022-08-25T06:33:40.548Z,21.69
2022-08-25T06:36:07.604Z,21.68
2022-08-25T06:38:33.937Z,22.04
2022-08-25T06:41:04.018Z,21.90
2022-08-25T06:43:30.349Z,21.68
2022-08-25T06:45:56.699Z,21.39
2022-08-25T06:48:23.928Z,21.30
2022-08-25T06:50:50.268Z,21.30
2022-08-25T06:53:16.630Z,21.48
2022-08-25T06:55:42.950Z,21.65
2022-08-25T06:58:11.126Z,21.77
2022-08-25T07:00:37.815Z,21.91
2022-08-25T07:03:04.971Z,22.04
2022-08-25T07:05:43.425Z,22.15
2022-08-25T07:08:11.911Z,22.37
2022-08-25T07:10:38.445Z,22.70
2022-08-25T07:13:04.744Z,22.86
2022-08-25T07:15:31.109Z,22.85
2022-08-25T07:17:57.587Z,23.42
2022-08-25T07:22:55.372Z,23.62
2022-08-25T07:25:21.684Z,23.72
2022-08-25T07:27:47.976Z,23.86
2022-08-25T07:30:14.447Z,23.96
2022-08-25T07:32:42.215Z,24.05
2022-08-25T07:35:15.404Z,23.84
2022-08-25T07:40:33.834Z,24.58
2022-08-25T07:43:01.553Z,24.67
2022-08-25T07:45:31.842Z,24.95
2022-08-25T07:47:59.878Z,24.68
2022-08-25T07:50:26.885Z,25.01
2022-08-25T07:52:55.458Z,24.75
2022-08-25T07:55:22.948Z,24.57
2022-08-25T07:57:54.037Z,24.97
2022-08-25T08:00:22.768Z,24.95
2022-08-25T08:02:51.007Z,24.60
2022-08-25T08:05:17.379Z,24.76
2022-08-25T08:07:43.982Z,25.15
2022-08-25T08:10:42.288Z,24.73
2022-08-25T08:12:58.409Z,25.29
2022-08-25T08:15:24.962Z,25.48
2022-08-25T08:17:54.700Z,25.64
2022-08-25T08:20:23.449Z,25.85
2022-08-25T08:22:50.118Z,25.74
2022-08-25T08:25:21.230Z,25.75
2022-08-25T08:27:48.145Z,25.58
2022-08-25T08:30:14.643Z,25.52
2022-08-25T08:33:06.259Z,25.99
2022-08-25T08:35:27.285Z,25.41
2022-08-25T08:37:53.970Z,25.70
2022-08-25T08:40:21.319Z,25.93
2022-08-25T08:42:56.050Z,26.30
2022-08-25T08:45:25.966Z,25.93
2022-08-25T08:48:04.616Z,25.67
2022-08-25T08:50:39.191Z,25.04
2022-08-25T08:53:09.418Z,25.32
2022-08-25T08:55:38.853Z,25.55
2022-08-25T08:58:07.323Z,25.45
2022-08-25T09:00:37.384Z,25.57
2022-08-25T09:03:06.939Z,25.22
2022-08-25T09:05:46.597Z,25.45
2022-08-25T09:08:14.709Z,24.87
2022-08-25T09:10:54.221Z,24.98
2022-08-25T09:13:32.729Z,25.02
2022-08-25T09:16:33.761Z,25.05
2022-08-25T09:19:23.555Z,25.21
2022-08-25T09:22:35.787Z,25.27
2022-08-25T09:25:04.376Z,25.64
2022-08-25T09:27:44.981Z,26.00
2022-08-25T09:30:13.962Z,26.34
2022-08-25T09:32:42.611Z,26.09
2022-08-25T09:35:20.535Z,25.90
2022-08-25T09:37:56.847Z,25.53
2022-08-25T09:40:25.680Z,25.61
2022-08-25T09:42:58.573Z,25.84
2022-08-25T09:45:42.279Z,25.97
2022-08-25T09:48:20.649Z,26.32
2022-08-25T09:50:47.018Z,26.54
2022-08-25T09:53:17.112Z,26.23
2022-08-25T09:55:46.419Z,26.14
2022-08-25T09:58:23.255Z,26.27
2022-08-25T10:01:04.520Z,26.29
2022-08-25T10:03:31.357Z,26.63
2022-08-25T10:06:13.257Z,26.46
2022-08-25T10:08:45.827Z,26.37
2022-08-25T10:11:30.416Z,25.62
2022-08-25T10:14:13.363Z,25.62
2022-08-25T10:16:39.713Z,25.94
2022-08-25T10:19:10.788Z,25.62
2022-08-25T10:21:38.413Z,25.60
2022-08-25T10:24:06.118Z,25.75
2022-08-25T10:26:51.257Z,25.64
2022-08-25T10:29:31.137Z,25.86
2022-08-25T10:32:05.160Z,26.06
2022-08-25T10:34:39.373Z,26.66
2022-08-25T10:37:10.872Z,26.70
2022-08-25T10:39:37.169Z,26.33
2022-08-25T10:42:26.182Z,26.60
2022-08-25T10:45:23.522Z,26.16
2022-08-25T10:48:00.344Z,26.22
2022-08-25T10:50:39.922Z,26.80
2022-08-25T10:53:14.541Z,26.66
2022-08-25T10:55:55.507Z,26.39
2022-08-25T10:58:35.311Z,26.36
2022-08-25T11:01:06.668Z,26.55
2022-08-25T11:03:56.675Z,26.63
2022-08-25T11:06:29.447Z,27.01
2022-08-25T11:09:02.152Z,26.70
2022-08-25T11:11:35.098Z,26.56
2022-08-25T11:14:15.596Z,26.39
2022-08-25T11:16:45.910Z,26.37
2022-08-25T11:19:19.791Z,26.59
2022-08-25T11:21:56.507Z,26.75
2022-08-25T11:24:45.952Z,27.05
2022-08-25T11:27:15.809Z,27.23
2022-08-25T11:29:47.913Z,27.67
2022-08-25T11:32:15.259Z,27.60
2022-08-25T11:34:43.611Z,27.49
2022-08-25T11:37:21.110Z,27.22
2022-08-25T11:39:47.572Z,27.30
2022-08-25T11:42:32.527Z,27.23
2022-08-25T11:45:08.649Z,27.10
2022-08-25T11:47:40.425Z,26.81
2022-08-25T11:50:08.878Z,27.19
2022-08-25T11:52:38.264Z,27.48
2022-08-25T11:55:07.201Z,27.52
2022-08-25T11:57:36.908Z,28.07
2022-08-25T12:00:14.686Z,28.01
2022-08-25T12:02:45.934Z,27.86
2022-08-25T12:05:32.445Z,28.05
2022-08-25T12:08:23.694Z,28.21
2022-08-25T12:10:52.820Z,27.39
2022-08-25T12:13:27.996Z,27.44
2022-08-25T12:15:55.701Z,27.56
2022-08-25T12:18:22.829Z,27.72
2022-08-25T12:20:55.071Z,27.79
2022-08-25T12:23:45.530Z,28.47
2022-08-25T12:26:35.399Z,27.76
2022-08-25T12:29:07.891Z,27.74
2022-08-25T12:31:47.618Z,27.87
2022-08-25T12:34:26.866Z,28.03
2022-08-25T12:36:58.039Z,28.09
2022-08-25T12:39:29.389Z,27.90
2022-08-25T12:42:05.726Z,27.76
2022-08-25T12:44:34.942Z,27.69
2022-08-25T12:47:11.774Z,27.51
2022-08-25T12:49:38.454Z,27.62
2022-08-25T12:52:06.554Z,27.26
2022-08-25T12:54:35.761Z,27.10
2022-08-25T12:57:05.294Z,26.76
2022-08-25T12:59:35.069Z,26.51
2022-08-25T13:02:19.909Z,26.81
2022-08-25T13:05:04.755Z,27.34
2022-08-25T13:07:51.676Z,26.94
2022-08-25T13:10:39.725Z,27.25
2022-08-25T13:13:36.041Z,27.34
2022-08-25T13:16:04.866Z,27.37
2022-08-25T13:18:33.056Z,26.96
2022-08-25T13:21:17.971Z,27.21
2022-08-25T13:23:46.565Z,27.13
2022-08-25T13:26:17.488Z,27.35
2022-08-25T13:28:50.634Z,27.20
2022-08-25T13:31:27.966Z,27.41
2022-08-25T13:33:57.756Z,27.29
2022-08-25T13:36:54.243Z,27.20
2022-08-25T13:39:45.625Z,27.42
2022-08-25T13:42:14.449Z,27.41
2022-08-25T13:44:41.094Z,27.23
2022-08-25T13:47:31.689Z,27.41
2022-08-25T13:50:14.957Z,27.19
2022-08-25T13:52:46.408Z,27.20
2022-08-25T13:55:19.133Z,27.23
2022-08-25T13:57:45.489Z,27.21
2022-08-25T14:00:13.506Z,27.21
2022-08-25T14:02:42.276Z,27.48
2022-08-25T14:05:11.679Z,27.42
2022-08-25T14:07:38.335Z,27.66
2022-08-25T14:10:10.134Z,27.52
2022-08-25T14:12:44.961Z,27.35
2022-08-25T14:15:11.485Z,27.23
2022-08-25T14:17:40.793Z,27.38
2022-08-25T14:20:17.079Z,27.28
2022-08-25T14:22:43.386Z,27.35
2022-08-25T14:25:11.254Z,27.26
2022-08-25T14:27:56.870Z,27.20
2022-08-25T14:30:28.640Z,27.08
2022-08-25T14:32:55.959Z,27.31
2022-08-25T14:35:22.311Z,27.06
2022-08-25T14:37:49.268Z,27.26
2022-08-25T14:40:19.782Z,27.16
2022-08-25T14:42:47.441Z,27.11
2022-08-25T14:45:14.624Z,26.98
2022-08-25T14:47:41.674Z,26.80
2022-08-25T14:50:08.528Z,26.72
2022-08-25T14:52:35.399Z,26.80
2022-08-25T14:55:02.505Z,26.76
2022-08-25T14:57:28.862Z,26.84
2022-08-25T14:59:55.218Z,26.88
2022-08-25T15:02:22.259Z,26.97
2022-08-25T15:04:58.781Z,26.93
2022-08-25T15:07:43.612Z,27.06
2022-08-25T15:10:13.675Z,27.03
2022-08-25T15:12:47.431Z,26.96
2022-08-25T15:15:14.681Z,26.81
2022-08-25T15:17:41.921Z,26.80
2022-08-25T15:20:11.469Z,26.70
2022-08-25T15:22:37.793Z,26.41
2022-08-25T15:25:04.663Z,26.55
2022-08-25T15:27:31.692Z,26.59
2022-08-25T15:29:58.017Z,26.55
2022-08-25T15:32:24.962Z,26.46
2022-08-25T15:34:54.465Z,26.31
2022-08-25T15:37:20.840Z,26.20
2022-08-25T15:39:48.793Z,26.24
2022-08-25T15:42:16.529Z,26.18
2022-08-25T15:44:43.503Z,26.11
2022-08-25T15:47:20.185Z,26.12
2022-08-25T15:49:47.160Z,26.06
2022-08-25T15:52:13.589Z,26.06
2022-08-25T15:54:40.052Z,25.93
2022-08-25T15:57:09.178Z,25.88
2022-08-25T15:59:40.210Z,25.91
2022-08-25T16:02:15.250Z,26.02
2022-08-25T16:04:41.815Z,25.98
2022-08-25T16:07:09.056Z,25.95
2022-08-25T16:09:40.133Z,25.95
2022-08-25T16:12:08.520Z,25.72
2022-08-25T16:14:35.213Z,25.70
2022-08-25T16:17:01.511Z,25.64
2022-08-25T16:19:28.296Z,25.83
2022-08-25T16:21:54.851Z,25.72
2022-08-25T16:24:21.175Z,25.76
2022-08-25T16:26:48.546Z,25.67
2022-08-25T16:29:15.621Z,25.52
2022-08-25T16:31:43.236Z,25.62
2022-08-25T16:34:09.884Z,25.57
2022-08-25T16:36:38.982Z,25.39
2022-08-25T16:39:09.893Z,25.43
2022-08-25T16:41:36.985Z,25.50
2022-08-25T16:44:11.300Z,25.47
2022-08-25T16:46:37.930Z,25.51
2022-08-25T16:49:07.072Z,25.37
2022-08-25T16:51:33.421Z,25.22
2022-08-25T16:54:22.163Z,25.35
2022-08-25T16:56:49.244Z,25.20
2022-08-25T16:59:21.305Z,25.21
2022-08-25T17:01:49.843Z,25.01
2022-08-25T17:04:17.264Z,24.99
2022-08-25T17:06:49.605Z,24.94
2022-08-25T17:09:24.083Z,24.94
2022-08-25T17:11:52.519Z,24.85
2022-08-25T17:14:20.634Z,24.85
2022-08-25T17:16:50.630Z,24.84
2022-08-25T17:19:17.318Z,24.84
2022-08-25T17:21:46.241Z,24.68
2022-08-25T17:24:13.206Z,24.59
2022-08-25T17:26:41.224Z,24.59
2022-08-25T17:29:07.684Z,24.59
2022-08-25T17:31:39.569Z,24.70
2022-08-25T17:34:10.682Z,24.44
2022-08-25T17:36:37.951Z,24.38
2022-08-25T17:39:06.764Z,24.33
2022-08-25T17:41:33.590Z,24.34
2022-08-25T17:44:04.483Z,24.32
2022-08-25T17:46:31.131Z,24.35
2022-08-25T17:48:57.580Z,24.39
2022-08-25T17:51:25.086Z,24.32
2022-08-25T17:53:52.814Z,24.27
2022-08-25T17:56:21.025Z,24.09
2022-08-25T17:58:47.690Z,24.10
2022-08-25T18:01:19.141Z,23.87
2022-08-25T18:03:45.636Z,24.03
2022-08-25T18:06:15.073Z,23.89
2022-08-25T18:08:42.892Z,23.86
2022-08-25T18:11:09.765Z,23.76
2022-08-25T18:13:36.130Z,23.65
2022-08-25T18:16:02.823Z,23.60
2022-08-25T18:18:30.987Z,23.63
2022-08-25T18:20:57.293Z,23.56
2022-08-25T18:23:23.728Z,23.52
2022-08-25T18:25:50.116Z,23.56
2022-08-25T18:28:16.647Z,23.45
2022-08-25T18:30:43.252Z,23.44
2022-08-25T18:33:09.811Z,23.47
2022-08-25T18:35:36.157Z,23.40
2022-08-25T18:38:23.367Z,23.34
2022-08-25T18:40:54.120Z,23.25
2022-08-25T18:43:20.499Z,23.26
2022-08-25T18:45:47.932Z,23.21
2022-08-25T18:48:17.913Z,23.18
2022-08-25T18:50:46.837Z,23.10
2022-08-25T18:53:17.758Z,23.13
2022-08-25T18:55:44.685Z,23.02
2022-08-25T18:58:11.659Z,22.94
2022-08-25T19:00:41.693Z,22.97
2022-08-25T19:03:09.038Z,23.02
2022-08-25T19:05:37.948Z,23.05
2022-08-25T19:08:05.602Z,22.86
2022-08-25T19:10:32.425Z,22.79
2022-08-25T19:13:02.270Z,22.91
2022-08-25T19:15:35.224Z,22.78
2022-08-25T19:18:01.861Z,22.77
2022-08-25T19:20:30.508Z,22.83
2022-08-25T19:22:57.729Z,22.68
2022-08-25T19:25:25.166Z,22.71
2022-08-25T19:28:00.454Z,22.75
2022-08-25T19:30:28.388Z,22.61
2022-08-25T19:32:56.370Z,22.64
2022-08-25T19:35:27.023Z,22.58
2022-08-25T19:37:58.117Z,22.44
2022-08-25T19:40:25.601Z,22.54
2022-08-25T19:42:53.967Z,22.57
2022-08-25T19:45:22.400Z,22.53
2022-08-25T19:47:49.237Z,22.51
2022-08-25T19:50:17.861Z,22.69
2022-08-25T19:52:44.576Z,22.69
2022-08-25T19:55:11.396Z,22.67
2022-08-25T19:57:42.459Z,22.65
2022-08-25T20:00:12.037Z,22.72
2022-08-25T20:02:38.908Z,22.60
2022-08-25T20:05:06.922Z,22.51
2022-08-25T20:07:33.673Z,22.39
2022-08-25T20:10:00.834Z,22.44
2022-08-25T20:12:27.972Z,22.36
2022-08-25T20:14:54.920Z,22.45
2022-08-25T20:17:24.893Z,22.31
2022-08-25T20:19:57.867Z,22.41
2022-08-25T20:22:26.799Z,22.29
2022-08-25T20:24:56.148Z,22.33
2022-08-25T20:27:25.213Z,22.29
2022-08-25T20:29:51.910Z,22.21
2022-08-25T20:32:19.401Z,22.24
2022-08-25T20:34:46.228Z,22.27
2022-08-25T20:37:12.580Z,22.18
2022-08-25T20:39:39.864Z,22.17
2022-08-25T20:42:06.670Z,22.18
2022-08-25T20:44:36.695Z,22.08
2022-08-25T20:47:07.760Z,22.16
2022-08-25T20:49:37.878Z,22.09
2022-08-25T20:52:05.114Z,22.19
2022-08-25T20:54:31.725Z,22.14
2022-08-25T20:56:58.925Z,22.11
2022-08-25T20:59:27.155Z,22.15
2022-08-25T21:01:54.510Z,22.02
2022-08-25T21:04:21.876Z,22.08
2022-08-25T21:06:49.461Z,22.07
2022-08-25T21:09:17.035Z,22.05
2022-08-25T21:11:43.952Z,21.99
2022-08-25T21:14:11.481Z,21.99
2022-08-25T21:16:40.948Z,21.95
2022-08-25T21:19:09.062Z,21.97
2022-08-25T21:21:37.821Z,21.90
2022-08-25T21:24:08.538Z,21.93
2022-08-25T21:26:36.566Z,21.96
2022-08-25T21:29:07.841Z,22.03
2022-08-25T21:31:35.733Z,21.97
2022-08-25T21:34:02.618Z,21.92
2022-08-25T21:36:30.716Z,21.87
2022-08-25T21:38:58.216Z,21.89
2022-08-25T21:41:29.230Z,21.82
2022-08-25T21:43:55.764Z,21.75
2022-08-25T21:46:23.199Z,21.81
2022-08-25T21:48:50.158Z,21.75
2022-08-25T21:51:19.179Z,21.72
2022-08-25T21:53:46.087Z,21.72
2022-08-25T21:56:17.311Z,21.70
2022-08-25T21:58:44.850Z,21.68
2022-08-25T22:01:18.236Z,21.64
2022-08-25T22:03:47.094Z,21.69
2022-08-25T22:06:14.799Z,21.75
2022-08-25T22:08:43.048Z,21.80
2022-08-25T22:11:09.399Z,21.75
2022-08-25T22:13:36.534Z,21.68
2022-08-25T22:16:07.566Z,21.62
2022-08-25T22:18:34.633Z,21.67
2022-08-25T22:21:01.571Z,21.53
2022-08-25T22:23:40.030Z,21.56
2022-08-25T22:26:11.075Z,21.57
2022-08-25T22:28:37.626Z,21.51
2022-08-25T22:31:04.564Z,21.49
2022-08-25T22:33:34.295Z,21.45
2022-08-25T22:36:00.713Z,21.49
2022-08-25T22:38:27.055Z,21.47
2022-08-25T22:40:53.883Z,21.53
2022-08-25T22:43:21.635Z,21.43
2022-08-25T22:45:48.065Z,21.37
2022-08-25T22:48:16.782Z,21.33
2022-08-25T22:50:43.147Z,21.33
2022-08-25T22:53:10.964Z,21.37
2022-08-25T22:55:41.452Z,21.31
2022-08-25T22:58:09.519Z,21.29
2022-08-25T23:00:38.316Z,21.19
2022-08-25T23:03:06.811Z,21.18
2022-08-25T23:05:35.047Z,21.15
2022-08-25T23:08:01.465Z,21.14
2022-08-25T23:10:27.793Z,21.13
2022-08-25T23:12:54.188Z,21.11
2022-08-25T23:15:20.526Z,21.10
2022-08-25T23:17:46.929Z,21.05
2022-08-25T23:20:32.901Z,21.05
2022-08-25T23:22:59.861Z,21.11
2022-08-25T23:25:26.391Z,20.98
2022-08-25T23:27:52.817Z,20.97
2022-08-25T23:30:19.392Z,20.98
2022-08-25T23:32:47.756Z,20.98
2022-08-25T23:35:14.443Z,20.95
2022-08-25T23:37:40.781Z,20.92
2022-08-25T23:40:09.890Z,20.86
2022-08-25T23:42:36.462Z,20.79
2022-08-25T23:45:03.859Z,20.79
2022-08-25T23:47:30.372Z,20.74
2022-08-25T23:49:56.713Z,20.71
2022-08-25T23:52:23.923Z,20.69
2022-08-25T23:54:51.273Z,20.67
2022-08-25T23:57:18.871Z,20.67
2022-08-25T23:59:45.346Z,20.65
